createdAt,value
2023-01-26T00:01:50.114Z,0.90
2023-01-26T00:06:55.284Z,0.90
2023-01-26T00:11:58.986Z,0.90
2023-01-26T00:17:02.657Z,1.00
2023-01-26T00:22:07.701Z,0.90
2023-01-26T00:27:11.462Z,1.00
2023-01-26T00:32:15.199Z,1.00
2023-01-26T00:37:20.319Z,0.90
2023-01-26T00:42:24.250Z,0.90
2023-01-26T00:47:28.039Z,0.90
2023-01-26T00:52:35.128Z,0.90
2023-01-26T00:57:39.305Z,0.90
2023-01-26T01:02:43.022Z,0.90
2023-01-26T01:07:49.055Z,1.00
2023-01-26T01:12:52.845Z,0.90
2023-01-26T01:17:56.573Z,1.00
2023-01-26T01:23:01.652Z,1.00
2023-01-26T01:28:05.582Z,1.00
2023-01-26T01:33:09.255Z,1.00
2023-01-26T01:38:14.264Z,1.00
2023-01-26T01:43:18.652Z,1.00
2023-01-26T01:48:26.369Z,1.10
2023-01-26T01:53:36.001Z,1.00
2023-01-26T01:58:43.709Z,1.10
2023-01-26T02:03:50.243Z,1.10
2023-01-26T02:08:57.510Z,1.10
2023-01-26T02:14:03.430Z,1.10
2023-01-26T02:19:13.268Z,1.10
2023-01-26T02:24:23.606Z,1.10
2023-01-26T02:29:28.856Z,1.10
2023-01-26T02:34:33.520Z,1.10
2023-01-26T02:39:45.630Z,1.20
2023-01-26T02:44:51.707Z,1.10
2023-01-26T02:49:58.236Z,1.10
2023-01-26T02:55:19.509Z,1.10
2023-01-26T03:00:26.966Z,1.10
2023-01-26T03:05:30.861Z,1.20
2023-01-26T03:10:35.036Z,1.20
2023-01-26T03:15:48.095Z,1.10
2023-01-26T03:21:09.511Z,1.20
2023-01-26T03:26:30.523Z,1.20
2023-01-26T03:31:35.773Z,1.10
2023-01-26T03:36:40.632Z,1.20
2023-01-26T03:42:06.387Z,1.20
2023-01-26T03:47:29.091Z,1.20
2023-01-26T03:52:50.432Z,1.20
2023-01-26T03:57:54.409Z,1.20
2023-01-26T04:03:17.276Z,1.20
2023-01-26T04:08:21.720Z,1.20
2023-01-26T04:13:43.646Z,1.20
2023-01-26T04:19:13.252Z,1.20
2023-01-26T04:24:17.495Z,1.20
2023-01-26T04:29:24.021Z,1.20
2023-01-26T04:34:29.650Z,1.30
2023-01-26T04:39:34.651Z,1.30
2023-01-26T04:44:38.453Z,1.40
2023-01-26T04:49:44.089Z,1.40
2023-01-26T04:54:49.161Z,1.40
2023-01-26T04:59:53.046Z,1.40
2023-01-26T05:04:59.494Z,1.40
2023-01-26T05:10:03.653Z,1.40
2023-01-26T05:15:27.705Z,1.40
2023-01-26T05:20:46.340Z,1.50
2023-01-26T05:26:02.445Z,1.50
2023-01-26T05:31:08.763Z,1.60
2023-01-26T05:36:13.956Z,1.50
2023-01-26T05:41:18.782Z,1.60
2023-01-26T05:46:38.509Z,1.50
2023-01-26T05:51:44.058Z,1.60
2023-01-26T05:56:48.356Z,1.60
2023-01-26T06:01:52.493Z,1.60
2023-01-26T06:07:00.025Z,1.60
2023-01-26T06:12:16.350Z,1.60
2023-01-26T06:17:42.687Z,1.70
2023-01-26T06:22:51.790Z,1.60
2023-01-26T06:27:59.212Z,1.60
2023-01-26T06:33:06.984Z,1.60
2023-01-26T06:38:15.995Z,1.60
2023-01-26T06:43:21.237Z,1.70
2023-01-26T06:48:25.915Z,1.70
2023-01-26T06:53:35.500Z,1.70
2023-01-26T06:58:59.395Z,1.70
2023-01-26T07:04:14.414Z,1.70
2023-01-26T07:09:19.510Z,1.70
2023-01-26T07:14:23.252Z,1.70
2023-01-26T07:19:27.050Z,1.70
2023-01-26T07:24:32.130Z,1.70
2023-01-26T07:29:35.976Z,1.70
2023-01-26T07:34:39.662Z,1.70
2023-01-26T07:39:44.660Z,1.70
2023-01-26T07:44:48.350Z,1.70
2023-01-26T07:49:52.054Z,1.80
2023-01-26T07:54:57.057Z,1.80
2023-01-26T08:00:00.789Z,1.80
2023-01-26T08:05:04.770Z,1.80
2023-01-26T08:10:12.640Z,1.80
2023-01-26T08:15:16.632Z,1.90
2023-01-26T08:20:20.717Z,1.80
2023-01-26T08:25:25.890Z,1.90
2023-01-26T08:30:29.534Z,1.90
2023-01-26T08:35:33.260Z,1.90
2023-01-26T08:40:38.860Z,1.90
2023-01-26T08:45:42.765Z,1.90
2023-01-26T08:50:46.703Z,2.00
2023-01-26T08:55:51.936Z,2.00
2023-01-26T09:00:55.791Z,2.10
2023-01-26T09:06:01.173Z,2.20
2023-01-26T09:11:08.770Z,2.20
2023-01-26T09:16:20.289Z,2.20
2023-01-26T09:21:25.085Z,2.30
2023-01-26T09:26:30.495Z,2.30
2023-01-26T09:31:34.486Z,2.40
2023-01-26T09:36:40.592Z,2.50
2023-01-26T09:41:58.608Z,2.50
2023-01-26T09:47:11.591Z,2.50
2023-01-26T09:52:23.997Z,2.50
2023-01-26T09:57:34.743Z,2.60
2023-01-26T10:02:56.675Z,2.60
2023-01-26T10:08:00.748Z,2.70
2023-01-26T10:13:06.021Z,2.70
2023-01-26T10:18:14.442Z,2.80
2023-01-26T10:23:22.024Z,2.80
2023-01-26T10:28:31.747Z,2.90
2023-01-26T10:33:38.357Z,3.00
2023-01-26T10:38:44.737Z,3.30
2023-01-26T10:43:55.396Z,3.40
2023-01-26T10:49:01.180Z,3.70
2023-01-26T10:54:22.497Z,3.90
2023-01-26T10:59:32.168Z,4.10
2023-01-26T11:04:35.834Z,4.20
2023-01-26T11:09:39.638Z,4.30
2023-01-26T11:15:01.622Z,4.40
2023-01-26T11:20:23.680Z,4.50
2023-01-26T11:25:34.124Z,4.60
2023-01-26T11:30:59.352Z,4.70
2023-01-26T11:36:10.455Z,4.80
2023-01-26T11:41:29.133Z,4.90
2023-01-26T11:46:59.396Z,5.20
2023-01-26T11:52:12.445Z,5.40
2023-01-26T11:57:23.908Z,5.50
2023-01-26T12:02:32.667Z,5.80
2023-01-26T12:07:54.674Z,6.10
2023-01-26T12:13:06.728Z,6.20
2023-01-26T12:18:21.351Z,6.40
2023-01-26T12:23:33.384Z,6.50
2023-01-26T12:28:46.924Z,6.60
2023-01-26T12:33:55.623Z,6.80
2023-01-26T12:39:13.827Z,6.80
2023-01-26T12:44:27.327Z,7.00
2023-01-26T12:49:35.063Z,7.00
2023-01-26T12:54:45.817Z,7.10
2023-01-26T12:59:50.716Z,7.10
2023-01-26T13:04:57.699Z,7.20
2023-01-26T13:10:29.554Z,7.30
2023-01-26T13:15:34.075Z,7.40
2023-01-26T13:20:50.418Z,7.40
2023-01-26T13:26:16.229Z,7.50
2023-01-26T13:31:33.988Z,7.50
2023-01-26T13:36:42.497Z,7.40
2023-01-26T13:41:47.837Z,7.30
2023-01-26T13:46:56.460Z,7.30
2023-01-26T13:52:01.571Z,7.20
2023-01-26T13:57:07.187Z,7.20
2023-01-26T14:02:22.138Z,7.20
2023-01-26T14:07:29.591Z,7.20
2023-01-26T14:12:36.619Z,7.20
2023-01-26T14:17:51.178Z,7.20
2023-01-26T14:23:14.127Z,7.20
2023-01-26T14:28:21.938Z,7.10
2023-01-26T14:33:26.477Z,7.10
2023-01-26T14:38:42.719Z,7.10
2023-01-26T14:43:47.431Z,7.00
2023-01-26T14:48:57.800Z,7.00
2023-01-26T14:54:06.408Z,6.90
2023-01-26T14:59:18.781Z,7.00
2023-01-26T15:04:27.217Z,6.90
2023-01-26T15:09:35.626Z,6.90
2023-01-26T15:14:48.370Z,6.90
2023-01-26T15:19:54.597Z,6.90
2023-01-26T15:25:18.454Z,6.90
2023-01-26T15:30:27.799Z,6.90
2023-01-26T15:35:33.327Z,6.80
2023-01-26T15:40:38.599Z,6.80
2023-01-26T15:45:44.501Z,6.80
2023-01-26T15:50:48.981Z,6.80
2023-01-26T15:55:56.147Z,6.70
2023-01-26T16:01:00.228Z,6.70
2023-01-26T16:06:04.043Z,6.70
2023-01-26T16:11:12.602Z,6.70
2023-01-26T16:16:17.514Z,6.70
2023-01-26T16:21:24.097Z,6.60
2023-01-26T16:26:29.770Z,6.60
2023-01-26T16:31:36.336Z,6.60
2023-01-26T16:36:40.147Z,6.60
2023-01-26T16:41:45.722Z,6.60
2023-01-26T16:46:49.435Z,6.50
2023-01-26T16:51:53.254Z,6.50
2023-01-26T16:56:58.668Z,6.50
2023-01-26T17:02:03.142Z,6.50
2023-01-26T17:07:06.893Z,6.50
2023-01-26T17:12:12.465Z,6.40
2023-01-26T17:17:16.322Z,6.40
2023-01-26T17:22:20.058Z,6.40
2023-01-26T17:27:25.563Z,6.40
2023-01-26T17:32:29.439Z,6.30
2023-01-26T17:37:33.173Z,6.30
2023-01-26T17:42:38.655Z,6.30
2023-01-26T17:47:43.656Z,6.30
2023-01-26T17:52:47.447Z,6.20
2023-01-26T17:57:52.538Z,6.20
2023-01-26T18:02:56.733Z,6.20
2023-01-26T18:08:00.604Z,6.20
2023-01-26T18:13:05.578Z,6.10
2023-01-26T18:18:09.399Z,6.10
2023-01-26T18:23:13.097Z,6.10
2023-01-26T18:28:18.257Z,6.10
2023-01-26T18:33:21.989Z,6.10
2023-01-26T18:38:25.698Z,6.00
2023-01-26T18:43:32.712Z,6.10
2023-01-26T18:48:37.194Z,6.00
2023-01-26T18:53:41.303Z,6.00
2023-01-26T18:58:46.718Z,6.00
2023-01-26T19:03:55.414Z,6.00
2023-01-26T19:09:01.070Z,6.00
2023-01-26T19:14:07.630Z,6.00
2023-01-26T19:19:13.013Z,6.00
2023-01-26T19:24:17.044Z,6.10
2023-01-26T19:29:22.164Z,6.00
2023-01-26T19:34:28.423Z,6.00
2023-01-26T19:39:32.416Z,6.10
2023-01-26T19:44:37.548Z,6.00
2023-01-26T19:49:42.436Z,6.00
2023-01-26T19:54:46.179Z,6.10
2023-01-26T19:59:52.328Z,6.10
2023-01-26T20:04:55.994Z,6.00
2023-01-26T20:09:59.711Z,6.00
2023-01-26T20:15:04.896Z,6.00
2023-01-26T20:20:12.199Z,6.00
2023-01-26T20:25:16.113Z,6.00
2023-01-26T20:30:22.682Z,6.00
2023-01-26T20:35:26.478Z,6.10
2023-01-26T20:40:30.332Z,6.00
2023-01-26T20:45:35.421Z,6.10
2023-01-26T20:50:40.813Z,6.00
2023-01-26T20:55:44.588Z,6.00
2023-01-26T21:00:49.801Z,6.00
2023-01-26T21:05:53.476Z,6.00
2023-01-26T21:10:57.169Z,6.00
2023-01-26T21:16:02.493Z,6.10
2023-01-26T21:21:09.062Z,6.00
2023-01-26T21:26:14.595Z,6.00
2023-01-26T21:31:19.953Z,6.00
2023-01-26T21:36:24.939Z,6.00
2023-01-26T21:41:47.827Z,6.00
2023-01-26T21:46:54.735Z,6.00
2023-01-26T21:52:16.051Z,6.10
2023-01-26T21:57:37.165Z,6.10
2023-01-26T22:02:42.315Z,6.10
2023-01-26T22:07:46.080Z,6.00
2023-01-26T22:12:49.770Z,6.10
2023-01-26T22:17:54.913Z,6.00
2023-01-26T22:22:58.836Z,6.00
2023-01-26T22:28:03.227Z,6.00
2023-01-26T22:33:08.887Z,6.00
2023-01-26T22:38:12.784Z,6.00
2023-01-26T22:43:16.591Z,6.00
2023-01-26T22:48:22.127Z,6.00
2023-01-26T22:53:26.038Z,6.00
2023-01-26T22:58:32.281Z,6.00
2023-01-26T23:03:39.721Z,6.00
2023-01-26T23:08:43.961Z,6.00
2023-01-26T23:13:49.182Z,6.00
2023-01-26T23:18:55.784Z,6.00
2023-01-26T23:23:59.855Z,6.00
2023-01-26T23:29:03.649Z,5.90
2023-01-26T23:34:08.705Z,5.90
2023-01-26T23:39:12.443Z,5.90
2023-01-26T23:44:16.182Z,5.90
2023-01-26T23:49:21.365Z,5.90
2023-01-26T23:54:25.117Z,5.90
2023-01-26T23:59:28.883Z,5.90
